createdAt,value
2023-02-14T00:02:06.700Z,4.40
2023-02-14T00:04:33.371Z,5.10
2023-02-14T00:07:01.179Z,4.32
2023-02-14T00:09:27.634Z,4.53
2023-02-14T00:11:54.043Z,5.40
2023-02-14T00:14:39.071Z,4.78
2023-02-14T00:17:05.513Z,4.97
2023-02-14T00:19:32.067Z,4.50
2023-02-14T00:21:58.522Z,3.90
2023-02-14T00:24:26.332Z,5.20
2023-02-14T00:26:53.703Z,7.55
2023-02-14T00:29:26.076Z,6.00
2023-02-14T00:31:52.894Z,7.75
2023-02-14T00:34:20.339Z,9.30
2023-02-14T00:36:47.428Z,11.05
2023-02-14T00:39:15.978Z,10.02
2023-02-14T00:41:43.219Z,10.60
2023-02-14T00:44:11.010Z,9.43
2023-02-14T00:46:37.689Z,9.23
2023-02-14T00:49:04.458Z,10.35
2023-02-14T00:51:31.197Z,9.90
2023-02-14T00:53:57.854Z,10.32
2023-02-14T00:56:24.389Z,10.32
2023-02-14T00:58:50.807Z,9.05
2023-02-14T01:01:20.372Z,9.18
2023-02-14T01:03:47.456Z,8.88
2023-02-14T01:06:14.270Z,7.18
2023-02-14T01:08:40.750Z,7.32
2023-02-14T01:11:19.637Z,6.53
2023-02-14T01:13:48.444Z,6.50
2023-02-14T01:16:20.907Z,7.82
2023-02-14T01:18:48.195Z,7.32
2023-02-14T01:21:16.914Z,8.27
2023-02-14T01:23:44.280Z,8.50
2023-02-14T01:26:11.528Z,7.93
2023-02-14T01:28:38.399Z,8.18
2023-02-14T01:31:20.368Z,9.57
2023-02-14T01:33:48.740Z,8.57
2023-02-14T01:36:19.994Z,8.65
2023-02-14T01:38:47.410Z,7.55
2023-02-14T01:41:14.315Z,8.45
2023-02-14T01:44:03.409Z,8.65
2023-02-14T01:46:32.393Z,8.27
2023-02-14T01:49:27.143Z,7.93
2023-02-14T01:52:08.278Z,8.43
2023-02-14T01:54:40.832Z,8.75
2023-02-14T01:57:10.869Z,8.77
2023-02-14T01:59:43.701Z,7.38
2023-02-14T02:02:10.744Z,7.78
2023-02-14T02:04:45.381Z,8.45
2023-02-14T02:07:17.410Z,7.90
2023-02-14T02:09:49.421Z,5.18
2023-02-14T02:12:16.034Z,6.53
2023-02-14T02:14:43.211Z,7.75
2023-02-14T02:17:17.221Z,9.27
2023-02-14T02:19:55.721Z,8.65
2023-02-14T02:22:47.052Z,8.68
2023-02-14T02:25:38.310Z,9.02
2023-02-14T02:28:30.971Z,7.15
2023-02-14T02:31:11.335Z,6.40
2023-02-14T02:34:00.907Z,8.82
2023-02-14T02:37:04.958Z,7.88
2023-02-14T02:39:49.072Z,7.72
2023-02-14T02:42:26.314Z,8.85
2023-02-14T02:45:21.475Z,8.77
2023-02-14T02:48:09.810Z,7.47
2023-02-14T02:51:03.669Z,6.85
2023-02-14T02:53:42.837Z,8.35
2023-02-14T02:56:35.066Z,8.68
2023-02-14T02:59:18.159Z,8.82
2023-02-14T03:01:53.767Z,7.72
2023-02-14T03:04:39.740Z,8.05
2023-02-14T03:07:27.139Z,8.70
2023-02-14T03:09:57.650Z,8.45
2023-02-14T03:12:33.281Z,9.35
2023-02-14T03:15:07.183Z,7.15
2023-02-14T03:17:41.275Z,8.65
2023-02-14T03:20:16.734Z,7.03
2023-02-14T03:22:52.831Z,9.77
2023-02-14T03:25:22.237Z,9.57
2023-02-14T03:28:14.926Z,9.50
2023-02-14T03:31:05.902Z,9.82
2023-02-14T03:33:35.624Z,9.65
2023-02-14T03:36:11.281Z,9.45
2023-02-14T03:38:49.195Z,9.18
2023-02-14T03:41:22.450Z,9.20
2023-02-14T03:43:52.420Z,10.88
2023-02-14T03:46:47.206Z,9.15
2023-02-14T03:49:21.958Z,10.13
2023-02-14T03:51:50.680Z,9.93
2023-02-14T03:54:18.342Z,9.50
2023-02-14T03:56:52.620Z,8.90
2023-02-14T03:59:25.537Z,8.65
2023-02-14T04:02:05.923Z,8.82
2023-02-14T04:04:35.973Z,10.00
2023-02-14T04:07:11.269Z,9.70
2023-02-14T04:09:37.963Z,10.32
2023-02-14T04:12:04.541Z,10.13
2023-02-14T04:14:31.010Z,11.70
2023-02-14T04:17:15.819Z,10.05
2023-02-14T04:19:42.281Z,9.93
2023-02-14T04:22:08.791Z,9.60
2023-02-14T04:24:35.343Z,9.70
2023-02-14T04:27:11.132Z,10.48
2023-02-14T04:29:37.844Z,10.25
2023-02-14T04:32:06.270Z,10.63
2023-02-14T04:34:32.800Z,9.38
2023-02-14T04:36:59.297Z,9.77
2023-02-14T04:39:25.826Z,9.75
2023-02-14T04:41:52.318Z,10.05
2023-02-14T04:44:18.819Z,10.65
2023-02-14T04:46:45.298Z,10.20
2023-02-14T04:49:11.783Z,9.25
2023-02-14T04:51:38.190Z,10.45
2023-02-14T04:54:04.677Z,10.40
2023-02-14T04:56:31.292Z,9.20
2023-02-14T04:58:57.842Z,9.30
2023-02-14T05:01:24.271Z,9.88
2023-02-14T05:03:50.777Z,10.10
2023-02-14T05:06:19.097Z,11.45
2023-02-14T05:08:45.568Z,10.18
2023-02-14T05:11:12.309Z,9.30
2023-02-14T05:13:38.816Z,10.40
2023-02-14T05:16:05.488Z,10.48
2023-02-14T05:18:32.010Z,11.45
2023-02-14T05:20:58.766Z,10.55
2023-02-14T05:23:25.318Z,9.55
2023-02-14T05:25:52.144Z,10.00
2023-02-14T05:28:19.688Z,9.98
2023-02-14T05:30:46.587Z,11.13
2023-02-14T05:33:13.127Z,11.15
2023-02-14T05:35:39.555Z,13.40
2023-02-14T05:38:05.994Z,10.90
2023-02-14T05:40:33.586Z,13.07
2023-02-14T05:43:00.151Z,12.32
2023-02-14T05:45:26.754Z,12.63
2023-02-14T05:47:53.231Z,11.35
2023-02-14T05:50:20.068Z,11.98
2023-02-14T05:52:46.570Z,13.25
2023-02-14T05:55:13.047Z,14.43
2023-02-14T05:57:39.594Z,13.75
2023-02-14T06:00:07.649Z,13.68
2023-02-14T06:02:34.131Z,13.30
2023-02-14T06:05:00.654Z,12.30
2023-02-14T06:07:27.219Z,12.27
2023-02-14T06:09:53.672Z,11.80
2023-02-14T06:12:20.122Z,13.13
2023-02-14T06:14:46.584Z,12.38
2023-02-14T06:17:13.127Z,13.10
2023-02-14T06:19:39.654Z,12.05
2023-02-14T06:22:06.124Z,14.10
2023-02-14T06:24:32.603Z,13.10
2023-02-14T06:27:00.180Z,13.98
2023-02-14T06:29:27.074Z,16.33
2023-02-14T06:31:53.618Z,15.65
2023-02-14T06:34:20.134Z,15.85
2023-02-14T06:36:46.674Z,16.48
2023-02-14T06:39:13.152Z,14.55
2023-02-14T06:41:39.590Z,13.40
2023-02-14T06:44:06.109Z,13.63
2023-02-14T06:46:32.581Z,15.13
2023-02-14T06:48:59.122Z,12.98
2023-02-14T06:51:25.586Z,14.88
2023-02-14T06:53:52.013Z,15.13
2023-02-14T06:56:18.487Z,15.35
2023-02-14T06:58:44.945Z,13.32
2023-02-14T07:01:11.531Z,14.18
2023-02-14T07:03:37.991Z,15.43
2023-02-14T07:06:04.995Z,13.98
2023-02-14T07:08:31.483Z,13.45
2023-02-14T07:10:58.876Z,14.45
2023-02-14T07:13:26.063Z,11.90
2023-02-14T07:15:52.552Z,16.17
2023-02-14T07:18:19.100Z,15.15
2023-02-14T07:20:45.649Z,15.25
2023-02-14T07:23:12.100Z,15.68
2023-02-14T07:25:38.942Z,15.30
2023-02-14T07:28:05.629Z,13.82
2023-02-14T07:30:32.397Z,13.27
2023-02-14T07:32:58.936Z,16.40
2023-02-14T07:35:25.505Z,14.60
2023-02-14T07:37:52.327Z,16.92
2023-02-14T07:40:20.871Z,12.98
2023-02-14T07:42:54.901Z,14.93
2023-02-14T07:45:22.415Z,14.90
2023-02-14T07:47:50.467Z,13.32
2023-02-14T07:50:17.301Z,16.00
2023-02-14T07:52:45.513Z,13.48
2023-02-14T07:55:12.110Z,14.57
2023-02-14T07:57:38.568Z,14.27
2023-02-14T08:00:06.427Z,14.13
2023-02-14T08:02:32.951Z,14.90
2023-02-14T08:04:59.442Z,16.10
2023-02-14T08:07:25.935Z,15.13
2023-02-14T08:09:52.442Z,15.57
2023-02-14T08:12:37.562Z,15.00
2023-02-14T08:15:23.003Z,15.20
2023-02-14T08:17:49.443Z,67.85
2023-02-14T08:20:15.961Z,16.02
2023-02-14T08:22:42.522Z,15.38
2023-02-14T08:25:09.036Z,14.35
2023-02-14T08:27:35.578Z,15.13
2023-02-14T08:30:02.164Z,13.85
2023-02-14T08:32:28.684Z,14.75
2023-02-14T08:34:55.196Z,13.65
2023-02-14T08:37:21.694Z,14.77
2023-02-14T08:39:48.146Z,13.35
2023-02-14T08:42:14.575Z,14.80
2023-02-14T08:44:41.095Z,15.40
2023-02-14T08:47:07.710Z,14.25
2023-02-14T08:49:34.264Z,20.02
2023-02-14T08:52:00.842Z,14.23
2023-02-14T08:54:27.299Z,14.88
2023-02-14T08:56:53.902Z,14.95
2023-02-14T08:59:20.397Z,15.07
2023-02-14T09:01:46.904Z,15.30
2023-02-14T09:04:13.529Z,14.70
2023-02-14T09:06:40.119Z,14.98
2023-02-14T09:09:07.304Z,14.73
2023-02-14T09:11:34.788Z,16.33
2023-02-14T09:14:01.341Z,13.82
2023-02-14T09:16:27.856Z,14.85
2023-02-14T09:18:54.939Z,12.82
2023-02-14T09:21:27.154Z,15.23
2023-02-14T09:23:54.300Z,15.68
2023-02-14T09:26:21.540Z,15.32
2023-02-14T09:28:48.697Z,14.57
2023-02-14T09:31:20.589Z,15.52
2023-02-14T09:33:54.541Z,13.82
2023-02-14T09:36:21.037Z,15.20
2023-02-14T09:38:47.678Z,14.27
2023-02-14T09:41:50.228Z,16.70
2023-02-14T09:44:41.025Z,15.30
2023-02-14T09:47:18.615Z,14.15
2023-02-14T09:49:47.201Z,15.30
2023-02-14T09:52:16.576Z,15.52
2023-02-14T09:54:48.882Z,15.77
2023-02-14T09:57:25.312Z,16.40
2023-02-14T10:00:14.560Z,15.80
2023-02-14T10:03:26.987Z,13.65
2023-02-14T10:06:21.526Z,14.10
2023-02-14T10:09:06.229Z,14.88
2023-02-14T10:11:33.844Z,15.13
2023-02-14T10:14:19.164Z,15.40
2023-02-14T10:17:08.324Z,13.75
2023-02-14T10:19:40.588Z,15.60
2023-02-14T10:22:14.163Z,16.77
2023-02-14T10:24:46.070Z,14.93
2023-02-14T10:27:29.453Z,14.95
2023-02-14T10:29:56.168Z,16.33
2023-02-14T10:32:32.100Z,16.08
2023-02-14T10:35:05.447Z,15.32
2023-02-14T10:37:44.135Z,13.88
2023-02-14T10:40:34.995Z,16.00
2023-02-14T10:43:07.494Z,14.63
2023-02-14T10:45:47.642Z,16.83
2023-02-14T10:48:35.957Z,16.10
2023-02-14T10:51:09.641Z,15.70
2023-02-14T10:53:36.030Z,16.00
2023-02-14T10:56:28.011Z,15.77
2023-02-14T10:58:56.694Z,16.00
2023-02-14T11:01:23.616Z,16.92
2023-02-14T11:04:11.566Z,16.40
2023-02-14T11:06:38.424Z,14.30
2023-02-14T11:09:04.968Z,14.68
2023-02-14T11:11:53.150Z,16.33
2023-02-14T11:14:35.805Z,15.93
2023-02-14T11:17:29.460Z,16.30
2023-02-14T11:20:01.937Z,17.00
2023-02-14T11:22:30.693Z,17.08
2023-02-14T11:25:18.659Z,15.95
2023-02-14T11:27:50.018Z,14.60
2023-02-14T11:30:45.605Z,14.77
2023-02-14T11:33:34.040Z,17.10
2023-02-14T11:36:03.646Z,16.55
2023-02-14T11:38:36.706Z,15.93
2023-02-14T11:41:05.082Z,15.73
2023-02-14T11:43:37.197Z,16.48
2023-02-14T11:46:27.038Z,15.98
2023-02-14T11:49:06.792Z,15.30
2023-02-14T11:51:37.804Z,17.10
2023-02-14T11:54:06.000Z,16.67
2023-02-14T11:56:49.507Z,17.42
2023-02-14T11:59:27.228Z,15.80
2023-02-14T12:01:54.601Z,15.43
2023-02-14T12:04:32.669Z,14.00
2023-02-14T12:07:36.920Z,13.90
2023-02-14T12:10:18.249Z,15.32
2023-02-14T12:12:53.786Z,15.70
2023-02-14T12:15:29.398Z,16.75
2023-02-14T12:18:20.898Z,15.80
2023-02-14T12:20:59.913Z,13.75
2023-02-14T12:23:44.849Z,15.32
2023-02-14T12:26:21.480Z,14.38
2023-02-14T12:28:55.805Z,16.48
2023-02-14T12:31:22.376Z,11.85
2023-02-14T12:33:50.503Z,15.95
2023-02-14T12:36:44.997Z,13.60
2023-02-14T12:39:24.956Z,14.48
2023-02-14T12:42:25.661Z,13.68
2023-02-14T12:45:19.922Z,14.93
2023-02-14T12:48:17.502Z,11.88
2023-02-14T12:51:03.000Z,13.77
2023-02-14T12:53:48.060Z,12.68
2023-02-14T12:56:33.739Z,14.70
2023-02-14T12:59:13.962Z,15.15
2023-02-14T13:02:12.759Z,14.20
2023-02-14T13:04:48.930Z,14.00
2023-02-14T13:07:39.693Z,10.18
2023-02-14T13:10:24.900Z,11.43
2023-02-14T13:13:09.581Z,13.50
2023-02-14T13:15:45.645Z,14.35
2023-02-14T13:18:39.489Z,11.52
2023-02-14T13:21:10.547Z,13.15
2023-02-14T13:23:53.404Z,11.75
2023-02-14T13:29:13.100Z,11.90
2023-02-14T13:31:40.768Z,13.10
2023-02-14T13:34:25.573Z,12.45
2023-02-14T13:36:54.735Z,10.40
2023-02-14T13:39:30.589Z,12.45
2023-02-14T13:41:57.647Z,12.05
2023-02-14T13:44:45.841Z,12.70
2023-02-14T13:47:24.360Z,11.77
2023-02-14T13:49:57.315Z,13.50
2023-02-14T13:52:44.085Z,13.38
2023-02-14T13:55:22.896Z,12.85
2023-02-14T13:58:03.628Z,13.82
2023-02-14T14:00:37.819Z,13.23
2023-02-14T14:03:05.713Z,13.73
2023-02-14T14:05:43.643Z,14.07
2023-02-14T14:08:16.478Z,13.32
2023-02-14T14:10:45.810Z,13.63
2023-02-14T14:13:50.892Z,14.05
2023-02-14T14:16:36.574Z,13.30
2023-02-14T14:19:07.519Z,14.52
2023-02-14T14:21:37.529Z,13.55
2023-02-14T14:24:06.934Z,13.80
2023-02-14T14:26:42.042Z,14.95
2023-02-14T14:29:34.826Z,13.60
2023-02-14T14:32:24.456Z,12.52
2023-02-14T14:34:57.292Z,12.75
2023-02-14T14:37:29.552Z,20.35
2023-02-14T14:40:04.628Z,15.32
2023-02-14T14:42:37.195Z,14.65
2023-02-14T14:45:25.862Z,21.00
2023-02-14T14:47:54.483Z,13.77
2023-02-14T14:50:28.654Z,14.10
2023-02-14T14:53:21.106Z,11.38
2023-02-14T14:55:51.949Z,13.10
2023-02-14T14:58:33.881Z,13.32
2023-02-14T15:01:00.532Z,13.25
2023-02-14T15:03:29.234Z,13.15
2023-02-14T15:06:04.598Z,12.13
2023-02-14T15:08:31.728Z,13.00
2023-02-14T15:11:04.162Z,13.23
2023-02-14T15:13:50.949Z,10.32
2023-02-14T15:16:25.054Z,10.80
2023-02-14T15:18:55.138Z,9.55
2023-02-14T15:21:21.764Z,11.45
2023-02-14T15:23:48.355Z,11.45
2023-02-14T15:26:35.739Z,8.68
2023-02-14T15:29:05.186Z,10.32
2023-02-14T15:31:36.139Z,11.45
2023-02-14T15:34:04.724Z,9.02
2023-02-14T15:36:33.715Z,10.15
2023-02-14T15:39:04.334Z,10.32
2023-02-14T15:41:30.856Z,7.82
2023-02-14T15:43:57.410Z,8.70
2023-02-14T15:46:23.816Z,9.27
2023-02-14T15:48:51.252Z,8.20
2023-02-14T15:51:23.368Z,8.48
2023-02-14T15:53:58.207Z,9.93
2023-02-14T15:56:30.113Z,9.43
2023-02-14T15:59:06.983Z,8.48
2023-02-14T16:01:35.702Z,9.70
2023-02-14T16:04:05.789Z,10.10
2023-02-14T16:06:35.320Z,8.90
2023-02-14T16:09:03.119Z,7.10
2023-02-14T16:11:35.970Z,7.82
2023-02-14T16:14:37.336Z,8.40
2023-02-14T16:17:12.584Z,6.50
2023-02-14T16:19:44.769Z,6.88
2023-02-14T16:22:34.313Z,6.85
2023-02-14T16:25:01.377Z,7.78
2023-02-14T16:27:27.812Z,8.05
2023-02-14T16:29:54.361Z,9.55
2023-02-14T16:32:22.718Z,7.80
2023-02-14T16:34:49.621Z,7.45
2023-02-14T16:37:23.017Z,7.60
2023-02-14T16:39:52.742Z,9.95
2023-02-14T16:42:19.386Z,8.30
2023-02-14T16:44:46.877Z,9.45
2023-02-14T16:47:15.145Z,7.53
2023-02-14T16:49:42.089Z,7.35
2023-02-14T16:52:18.182Z,6.80
2023-02-14T16:54:44.687Z,6.85
2023-02-14T16:57:25.858Z,6.22
2023-02-14T16:59:54.434Z,6.32
2023-02-14T17:02:21.337Z,6.90
2023-02-14T17:04:47.892Z,6.70
2023-02-14T17:07:15.903Z,6.72
2023-02-14T17:09:48.278Z,6.28
2023-02-14T17:12:20.211Z,6.30
2023-02-14T17:14:49.573Z,6.00
2023-02-14T17:17:16.810Z,5.65
2023-02-14T17:19:43.929Z,6.25
2023-02-14T17:22:13.513Z,5.80
2023-02-14T17:24:40.829Z,6.97
2023-02-14T17:27:10.208Z,6.47
2023-02-14T17:29:37.017Z,6.55
2023-02-14T17:32:03.702Z,5.95
2023-02-14T17:34:33.927Z,5.57
2023-02-14T17:37:00.422Z,5.22
2023-02-14T17:39:26.984Z,6.30
2023-02-14T17:41:53.448Z,5.15
2023-02-14T17:44:20.068Z,6.47
2023-02-14T17:46:46.640Z,6.70
2023-02-14T17:49:13.162Z,5.60
2023-02-14T17:51:39.603Z,6.07
2023-02-14T17:54:06.166Z,6.57
2023-02-14T17:56:32.608Z,6.07
2023-02-14T17:58:59.872Z,6.10
2023-02-14T18:01:31.370Z,4.95
2023-02-14T18:03:57.953Z,7.65
2023-02-14T18:06:25.853Z,5.97
2023-02-14T18:08:56.610Z,5.90
2023-02-14T18:11:25.776Z,6.90
2023-02-14T18:13:57.990Z,5.53
2023-02-14T18:16:25.009Z,7.45
2023-02-14T18:18:51.884Z,9.70
2023-02-14T18:21:20.975Z,11.32
2023-02-14T18:23:48.127Z,9.63
2023-02-14T18:26:16.719Z,10.57
2023-02-14T18:28:43.185Z,10.57
2023-02-14T18:31:12.714Z,11.85
2023-02-14T18:33:39.444Z,11.55
2023-02-14T18:36:08.608Z,10.73
2023-02-14T18:38:35.584Z,10.65
2023-02-14T18:41:03.460Z,15.52
2023-02-14T18:43:30.412Z,11.40
2023-02-14T18:46:05.936Z,12.82
2023-02-14T18:48:32.730Z,9.23
2023-02-14T18:51:13.885Z,9.85
2023-02-14T18:53:41.045Z,10.70
2023-02-14T18:56:09.885Z,10.93
2023-02-14T18:58:36.555Z,9.00
2023-02-14T19:01:18.186Z,8.93
2023-02-14T19:03:45.152Z,7.60
2023-02-14T19:06:12.845Z,9.07
2023-02-14T19:08:40.914Z,11.07
2023-02-14T19:11:15.329Z,7.93
2023-02-14T19:13:50.880Z,7.28
2023-02-14T19:16:20.130Z,8.43
2023-02-14T19:18:47.189Z,12.15
2023-02-14T19:21:20.097Z,11.45
2023-02-14T19:23:46.991Z,10.35
2023-02-14T19:26:18.709Z,10.38
2023-02-14T19:28:46.751Z,11.88
2023-02-14T19:31:13.953Z,11.98
2023-02-14T19:33:42.595Z,11.35
2023-02-14T19:36:12.792Z,11.68
2023-02-14T19:38:41.042Z,12.60
2023-02-14T19:41:18.839Z,12.40
2023-02-14T19:43:46.274Z,11.63
2023-02-14T19:46:17.426Z,11.40
2023-02-14T19:48:44.610Z,12.02
2023-02-14T19:51:27.966Z,11.23
2023-02-14T19:53:55.692Z,11.02
2023-02-14T19:56:27.752Z,11.15
2023-02-14T19:58:56.133Z,12.85
2023-02-14T20:01:30.946Z,13.82
2023-02-14T20:03:57.726Z,13.30
2023-02-14T20:06:25.818Z,11.82
2023-02-14T20:08:53.051Z,12.80
2023-02-14T20:11:19.432Z,14.18
2023-02-14T20:13:45.836Z,16.70
2023-02-14T20:16:12.316Z,14.60
2023-02-14T20:18:38.855Z,14.52
2023-02-14T20:21:05.442Z,15.65
2023-02-14T20:23:33.723Z,13.40
2023-02-14T20:26:00.318Z,16.70
2023-02-14T20:28:26.781Z,15.27
2023-02-14T20:30:53.475Z,19.67
2023-02-14T20:33:20.014Z,19.98
2023-02-14T20:35:46.552Z,14.10
2023-02-14T20:38:13.126Z,15.52
2023-02-14T20:40:42.715Z,16.58
2023-02-14T20:43:09.254Z,18.25
2023-02-14T20:45:35.692Z,15.68
2023-02-14T20:48:04.274Z,16.63
2023-02-14T20:50:31.188Z,15.10
2023-02-14T20:52:58.234Z,14.45
2023-02-14T20:55:27.028Z,15.80
2023-02-14T20:57:53.860Z,15.75
2023-02-14T21:00:20.572Z,12.43
2023-02-14T21:02:47.038Z,16.35
2023-02-14T21:05:18.322Z,16.05
2023-02-14T21:07:44.857Z,16.45
2023-02-14T21:10:11.342Z,14.77
2023-02-14T21:12:38.615Z,15.43
2023-02-14T21:15:06.963Z,13.15
2023-02-14T21:17:33.987Z,13.90
2023-02-14T21:20:00.490Z,13.13
2023-02-14T21:22:27.092Z,14.38
2023-02-14T21:24:53.564Z,13.60
2023-02-14T21:27:20.033Z,14.60
2023-02-14T21:29:46.535Z,13.35
2023-02-14T21:32:13.128Z,15.68
2023-02-14T21:34:39.713Z,15.02
2023-02-14T21:37:06.384Z,14.07
2023-02-14T21:39:35.701Z,15.80
2023-02-14T21:42:02.411Z,14.15
2023-02-14T21:44:47.293Z,15.35
2023-02-14T21:47:13.876Z,16.45
2023-02-14T21:49:58.678Z,16.35
2023-02-14T21:52:25.168Z,14.73
2023-02-14T21:54:51.740Z,12.82
2023-02-14T21:57:18.208Z,16.33
2023-02-14T21:59:44.682Z,16.02
2023-02-14T22:02:12.311Z,15.05
2023-02-14T22:04:38.927Z,17.85
2023-02-14T22:07:06.210Z,15.70
2023-02-14T22:09:32.805Z,16.65
2023-02-14T22:11:59.248Z,18.20
2023-02-14T22:14:29.171Z,18.95
2023-02-14T22:16:56.169Z,16.08
2023-02-14T22:19:22.729Z,16.65
2023-02-14T22:21:49.257Z,17.08
2023-02-14T22:24:15.754Z,17.40
2023-02-14T22:26:42.307Z,16.38
2023-02-14T22:29:11.247Z,17.27
2023-02-14T22:31:40.622Z,18.98
2023-02-14T22:34:09.006Z,16.88
2023-02-14T22:36:36.010Z,17.73
2023-02-14T22:39:02.908Z,17.13
2023-02-14T22:41:29.439Z,17.17
2023-02-14T22:43:56.029Z,16.45
2023-02-14T22:46:26.095Z,15.73
2023-02-14T22:48:54.037Z,15.90
2023-02-14T22:51:24.971Z,14.95
2023-02-14T22:53:54.716Z,17.83
2023-02-14T22:56:25.841Z,16.40
2023-02-14T22:59:00.985Z,17.13
2023-02-14T23:01:28.310Z,18.02
2023-02-14T23:03:57.603Z,17.58
2023-02-14T23:06:25.699Z,16.90
2023-02-14T23:08:53.062Z,16.08
2023-02-14T23:11:25.398Z,15.98
2023-02-14T23:14:10.972Z,18.00
2023-02-14T23:16:56.568Z,14.93
2023-02-14T23:19:44.088Z,18.10
2023-02-14T23:22:24.903Z,17.27
2023-02-14T23:24:53.795Z,17.33
2023-02-14T23:27:23.508Z,15.73
2023-02-14T23:29:50.106Z,19.35
2023-02-14T23:32:17.077Z,17.38
2023-02-14T23:34:45.088Z,15.18
2023-02-14T23:37:12.317Z,16.65
2023-02-14T23:39:39.100Z,18.20
2023-02-14T23:42:10.427Z,19.02
2023-02-14T23:44:37.120Z,16.98
2023-02-14T23:47:06.010Z,16.33
2023-02-14T23:49:34.195Z,17.45
2023-02-14T23:52:00.946Z,17.70
2023-02-14T23:54:27.797Z,17.70
2023-02-14T23:56:54.954Z,19.42
2023-02-14T23:59:22.148Z,15.93
